Aviation Digital Data Service (ADDS)

Output produced by METARs form (0428 UTC 26 May 2018)
found at http://www.aviationweather.gov/adds/metars/
 
TLPC 252300Z 2600/2624 10012KT 9999 SCT025 
     TEMPO 2606/2618 5000 SHRA FEW017TCU BKN022 BKN038
       
TLPL 252300Z 2600/2624 09018KT 9999 SCT025 
     TEMPO 2606/2618 5000 SHRA FEW017TCU BKN022 BKN038